sensor_id;sensor_type;location;lat;lon;timestamp;pressure;altitude;pressure_sealevel;temperature;humidity
64141;BME280;50436;50.618;7.932;2023-08-12T00:00:48;96846.72;;;20.35;100.00
64141;BME280;50436;50.618;7.932;2023-08-12T00:03:34;96846.94;;;20.52;100.00
64141;BME280;50436;50.618;7.932;2023-08-12T00:06:20;96846.94;;;20.66;100.00
64141;BME280;50436;50.618;7.932;2023-08-12T00:09:05;96834.06;;;20.71;100.00
64141;BME280;50436;50.618;7.932;2023-08-12T00:11:52;96837.28;;;20.73;100.00
64141;BME280;50436;50.618;7.932;2023-08-12T00:14:38;96825.91;;;20.71;100.00
64141;BME280;50436;50.618;7.932;2023-08-12T00:17:24;96838.97;;;20.69;100.00
64141;BME280;50436;50.618;7.932;2023-08-12T00:20:10;96821.69;;;20.65;100.00
64141;BME280;50436;50.618;7.932;2023-08-12T00:22:57;96821.19;;;20.63;100.00
64141;BME280;50436;50.618;7.932;2023-08-12T00:25:43;96814.63;;;20.64;100.00
64141;BME280;50436;50.618;7.932;2023-08-12T00:28:29;96821.69;;;20.65;100.00
64141;BME280;50436;50.618;7.932;2023-08-12T00:31:15;96812.50;;;20.61;100.00
64141;BME280;50436;50.618;7.932;2023-08-12T00:34:01;96814.81;;;20.54;100.00
64141;BME280;50436;50.618;7.932;2023-08-12T00:36:47;96802.25;;;20.44;100.00
64141;BME280;50436;50.618;7.932;2023-08-12T00:39:32;96814.31;;;20.38;100.00
64141;BME280;50436;50.618;7.932;2023-08-12T00:42:18;96802.13;;;20.36;100.00
64141;BME280;50436;50.618;7.932;2023-08-12T00:45:11;96807.06;;;20.34;100.00
64141;BME280;50436;50.618;7.932;2023-08-12T00:48:00;96812.09;;;20.26;100.00
64141;BME280;50436;50.618;7.932;2023-08-12T00:50:46;96809.06;;;20.14;100.00
64141;BME280;50436;50.618;7.932;2023-08-12T00:53:32;96816.31;;;20.05;100.00
64141;BME280;50436;50.618;7.932;2023-08-12T00:56:18;96812.09;;;20.13;100.00
64141;BME280;50436;50.618;7.932;2023-08-12T00:59:05;96807.69;;;20.17;100.00
64141;BME280;50436;50.618;7.932;2023-08-12T01:01:52;96814.50;;;20.14;100.00
64141;BME280;50436;50.618;7.932;2023-08-12T01:04:40;96811.91;;;20.09;100.00
64141;BME280;50436;50.618;7.932;2023-08-12T01:07:26;96804.13;;;19.89;100.00
64141;BME280;50436;50.618;7.932;2023-08-12T01:10:13;96798.31;;;19.95;100.00
64141;BME280;50436;50.618;7.932;2023-08-12T01:13:23;96808.06;;;19.96;100.00
64141;BME280;50436;50.618;7.932;2023-08-12T01:16:13;96805.66;;;19.95;100.00
64141;BME280;50436;50.618;7.932;2023-08-12T01:19:02;96808.44;;;19.90;100.00
64141;BME280;50436;50.618;7.932;2023-08-12T01:21:52;96793.94;;;19.81;100.00
64141;BME280;50436;50.618;7.932;2023-08-12T01:24:43;96810.22;;;19.67;100.00
64141;BME280;50436;50.618;7.932;2023-08-12T01:27:30;96814.34;;;19.64;100.00
64141;BME280;50436;50.618;7.932;2023-08-12T01:30:16;96793.53;;;19.73;100.00
64141;BME280;50436;50.618;7.932;2023-08-12T01:33:13;96782.41;;;19.56;100.00
64141;BME280;50436;50.618;7.932;2023-08-12T01:36:15;96784.34;;;19.37;100.00
64141;BME280;50436;50.618;7.932;2023-08-12T01:39:02;96778.72;;;19.33;100.00
64141;BME280;50436;50.618;7.932;2023-08-12T01:41:50;96778.19;;;19.50;100.00
64141;BME280;50436;50.618;7.932;2023-08-12T01:44:37;96770.03;;;19.50;100.00
64141;BME280;50436;50.618;7.932;2023-08-12T01:47:22;96773.19;;;19.57;100.00
64141;BME280;50436;50.618;7.932;2023-08-12T01:50:09;96776.25;;;19.51;100.00
64141;BME280;50436;50.618;7.932;2023-08-12T01:52:55;96769.94;;;19.55;100.00
64141;BME280;50436;50.618;7.932;2023-08-12T01:55:45;96775.31;;;19.60;100.00
64141;BME280;50436;50.618;7.932;2023-08-12T01:58:31;96794.31;;;19.60;100.00
64141;BME280;50436;50.618;7.932;2023-08-12T02:01:17;96798.19;;;19.54;100.00
64141;BME280;50436;50.618;7.932;2023-08-12T02:04:03;96803.69;;;19.49;100.00
64141;BME280;50436;50.618;7.932;2023-08-12T02:06:49;96804.13;;;19.56;100.00
64141;BME280;50436;50.618;7.932;2023-08-12T02:09:35;96798.28;;;19.49;100.00
64141;BME280;50436;50.618;7.932;2023-08-12T02:12:21;96804.22;;;19.51;100.00
64141;BME280;50436;50.618;7.932;2023-08-12T02:15:07;96805.91;;;19.47;100.00
64141;BME280;50436;50.618;7.932;2023-08-12T02:17:53;96808.09;;;19.45;100.00
64141;BME280;50436;50.618;7.932;2023-08-12T02:20:40;96808.53;;;19.52;100.00
64141;BME280;50436;50.618;7.932;2023-08-12T02:23:26;96818.69;;;19.46;100.00
64141;BME280;50436;50.618;7.932;2023-08-12T02:26:12;96813.13;;;19.38;100.00
64141;BME280;50436;50.618;7.932;2023-08-12T02:28:58;96822.56;;;19.40;100.00
64141;BME280;50436;50.618;7.932;2023-08-12T02:31:44;96821.78;;;19.40;100.00
64141;BME280;50436;50.618;7.932;2023-08-12T02:34:30;96824.84;;;19.33;100.00
64141;BME280;50436;50.618;7.932;2023-08-12T02:37:15;96806.59;;;19.20;100.00
64141;BME280;50436;50.618;7.932;2023-08-12T02:40:01;96786.97;;;18.90;100.00
64141;BME280;50436;50.618;7.932;2023-08-12T02:42:50;96771.75;;;18.76;100.00
64141;BME280;50436;50.618;7.932;2023-08-12T02:45:38;96780.19;;;18.93;100.00
64141;BME280;50436;50.618;7.932;2023-08-12T02:48:23;96767.50;;;19.07;100.00
64141;BME280;50436;50.618;7.932;2023-08-12T02:51:09;96786.75;;;19.06;100.00
64141;BME280;50436;50.618;7.932;2023-08-12T02:53:55;96778.69;;;19.19;100.00
64141;BME280;50436;50.618;7.932;2023-08-12T02:56:41;96796.75;;;18.91;100.00
64141;BME280;50436;50.618;7.932;2023-08-12T02:59:27;96782.13;;;19.06;100.00
64141;BME280;50436;50.618;7.932;2023-08-12T03:02:15;96772.16;;;19.20;100.00
64141;BME280;50436;50.618;7.932;2023-08-12T03:05:01;96771.56;;;19.24;100.00
64141;BME280;50436;50.618;7.932;2023-08-12T03:07:49;96761.00;;;19.22;100.00
64141;BME280;50436;50.618;7.932;2023-08-12T03:10:37;96752.22;;;19.30;100.00
64141;BME280;50436;50.618;7.932;2023-08-12T03:13:23;96753.00;;;19.31;100.00
64141;BME280;50436;50.618;7.932;2023-08-12T03:16:12;96756.00;;;19.29;100.00
64141;BME280;50436;50.618;7.932;2023-08-12T03:19:04;96757.66;;;19.11;100.00
64141;BME280;50436;50.618;7.932;2023-08-12T03:21:51;96754.09;;;19.30;100.00
64141;BME280;50436;50.618;7.932;2023-08-12T03:24:37;96756.94;;;19.38;100.00
64141;BME280;50436;50.618;7.932;2023-08-12T03:27:26;96751.81;;;19.37;100.00
64141;BME280;50436;50.618;7.932;2023-08-12T03:30:12;96738.84;;;19.34;100.00
64141;BME280;50436;50.618;7.932;2023-08-12T03:32:58;96739.91;;;19.19;100.00
64141;BME280;50436;50.618;7.932;2023-08-12T03:35:48;96743.75;;;19.32;100.00
64141;BME280;50436;50.618;7.932;2023-08-12T03:38:35;96741.25;;;19.35;100.00
64141;BME280;50436;50.618;7.932;2023-08-12T03:41:22;96750.41;;;19.39;100.00
64141;BME280;50436;50.618;7.932;2023-08-12T03:44:08;96744.00;;;19.49;100.00
64141;BME280;50436;50.618;7.932;2023-08-12T03:46:54;96740.19;;;19.50;100.00
64141;BME280;50436;50.618;7.932;2023-08-12T03:49:40;96731.72;;;19.52;100.00
64141;BME280;50436;50.618;7.932;2023-08-12T03:52:27;96730.94;;;19.51;100.00
64141;BME280;50436;50.618;7.932;2023-08-12T03:55:13;96738.75;;;19.39;100.00
64141;BME280;50436;50.618;7.932;2023-08-12T03:57:59;96733.50;;;19.29;100.00
64141;BME280;50436;50.618;7.932;2023-08-12T04:00:46;96723.66;;;19.33;100.00
64141;BME280;50436;50.618;7.932;2023-08-12T04:03:34;96717.72;;;18.98;100.00
64141;BME280;50436;50.618;7.932;2023-08-12T04:06:20;96715.91;;;18.93;100.00
64141;BME280;50436;50.618;7.932;2023-08-12T04:09:08;96711.84;;;19.10;100.00
64141;BME280;50436;50.618;7.932;2023-08-12T04:11:54;96706.63;;;19.13;100.00
64141;BME280;50436;50.618;7.932;2023-08-12T04:14:40;96700.44;;;19.27;100.00
64141;BME280;50436;50.618;7.932;2023-08-12T04:17:26;96702.72;;;19.19;100.00
64141;BME280;50436;50.618;7.932;2023-08-12T04:20:12;96697.81;;;19.21;100.00
64141;BME280;50436;50.618;7.932;2023-08-12T04:22:58;96697.41;;;19.28;100.00
64141;BME280;50436;50.618;7.932;2023-08-12T04:25:45;96696.44;;;19.05;100.00
64141;BME280;50436;50.618;7.932;2023-08-12T04:28:32;96691.56;;;19.07;100.00
64141;BME280;50436;50.618;7.932;2023-08-12T04:31:18;96689.78;;;19.16;100.00
64141;BME280;50436;50.618;7.932;2023-08-12T04:34:05;96693.91;;;19.28;100.00
64141;BME280;50436;50.618;7.932;2023-08-12T04:36:52;96690.06;;;19.15;100.00
64141;BME280;50436;50.618;7.932;2023-08-12T04:39:38;96688.94;;;19.02;100.00
64141;BME280;50436;50.618;7.932;2023-08-12T04:42:24;96680.06;;;18.97;100.00
64141;BME280;50436;50.618;7.932;2023-08-12T04:45:10;96672.16;;;19.00;100.00
64141;BME280;50436;50.618;7.932;2023-08-12T04:47:57;96679.81;;;18.79;100.00
64141;BME280;50436;50.618;7.932;2023-08-12T04:50:43;96680.84;;;18.83;100.00
64141;BME280;50436;50.618;7.932;2023-08-12T04:53:29;96674.09;;;18.81;100.00
64141;BME280;50436;50.618;7.932;2023-08-12T04:56:16;96671.06;;;18.63;100.00
64141;BME280;50436;50.618;7.932;2023-08-12T04:59:04;96675.66;;;18.68;100.00
64141;BME280;50436;50.618;7.932;2023-08-12T05:01:51;96671.16;;;18.58;100.00
64141;BME280;50436;50.618;7.932;2023-08-12T05:04:37;96665.66;;;18.63;100.00
64141;BME280;50436;50.618;7.932;2023-08-12T05:07:22;96659.75;;;18.61;100.00
64141;BME280;50436;50.618;7.932;2023-08-12T05:10:11;96659.31;;;18.54;100.00
64141;BME280;50436;50.618;7.932;2023-08-12T05:12:58;96671.22;;;18.34;100.00
64141;BME280;50436;50.618;7.932;2023-08-12T05:15:46;96668.44;;;18.21;100.00
64141;BME280;50436;50.618;7.932;2023-08-12T05:18:33;96664.72;;;18.17;100.00
64141;BME280;50436;50.618;7.932;2023-08-12T05:21:19;96671.09;;;18.07;100.00
64141;BME280;50436;50.618;7.932;2023-08-12T05:24:06;96679.41;;;18.10;100.00
64141;BME280;50436;50.618;7.932;2023-08-12T05:26:52;96680.06;;;18.02;100.00
64141;BME280;50436;50.618;7.932;2023-08-12T05:29:37;96683.81;;;18.06;100.00
64141;BME280;50436;50.618;7.932;2023-08-12T05:32:23;96683.06;;;18.01;100.00
64141;BME280;50436;50.618;7.932;2023-08-12T05:35:09;96687.44;;;17.97;100.00
64141;BME280;50436;50.618;7.932;2023-08-12T05:37:55;96685.16;;;17.85;100.00
64141;BME280;50436;50.618;7.932;2023-08-12T05:40:41;96694.25;;;17.94;100.00
64141;BME280;50436;50.618;7.932;2023-08-12T05:43:27;96687.38;;;18.02;100.00
64141;BME280;50436;50.618;7.932;2023-08-12T05:46:13;96684.47;;;18.17;100.00
64141;BME280;50436;50.618;7.932;2023-08-12T05:48:59;96692.75;;;18.26;100.00
64141;BME280;50436;50.618;7.932;2023-08-12T05:51:44;96695.47;;;18.26;100.00
64141;BME280;50436;50.618;7.932;2023-08-12T05:54:30;96695.91;;;18.33;100.00
64141;BME280;50436;50.618;7.932;2023-08-12T05:57:16;96705.22;;;18.46;100.00
64141;BME280;50436;50.618;7.932;2023-08-12T06:00:02;96702.66;;;18.54;100.00
64141;BME280;50436;50.618;7.932;2023-08-12T06:02:57;96691.59;;;18.51;100.00
64141;BME280;50436;50.618;7.932;2023-08-12T06:05:46;96696.50;;;18.49;100.00
64141;BME280;50436;50.618;7.932;2023-08-12T06:08:32;96699.84;;;18.59;100.00
64141;BME280;50436;50.618;7.932;2023-08-12T06:11:18;96700.38;;;18.61;100.00
64141;BME280;50436;50.618;7.932;2023-08-12T06:14:04;96706.53;;;18.48;100.00
64141;BME280;50436;50.618;7.932;2023-08-12T06:16:49;96703.03;;;18.67;100.00
64141;BME280;50436;50.618;7.932;2023-08-12T06:19:35;96701.38;;;19.03;100.00
64141;BME280;50436;50.618;7.932;2023-08-12T06:22:21;96699.94;;;19.25;100.00
64141;BME280;50436;50.618;7.932;2023-08-12T06:25:07;96706.84;;;19.17;100.00
64141;BME280;50436;50.618;7.932;2023-08-12T06:27:56;96718.53;;;19.31;100.00
64141;BME280;50436;50.618;7.932;2023-08-12T06:30:47;96716.03;;;19.35;100.00
64141;BME280;50436;50.618;7.932;2023-08-12T06:33:33;96736.50;;;19.60;100.00
64141;BME280;50436;50.618;7.932;2023-08-12T06:36:19;96720.94;;;19.65;100.00
64141;BME280;50436;50.618;7.932;2023-08-12T06:39:05;96726.78;;;19.86;100.00
64141;BME280;50436;50.618;7.932;2023-08-12T06:41:51;96723.06;;;20.10;100.00
64141;BME280;50436;50.618;7.932;2023-08-12T06:44:38;96725.34;;;20.44;100.00
64141;BME280;50436;50.618;7.932;2023-08-12T06:47:24;96730.25;;;20.92;100.00
64141;BME280;50436;50.618;7.932;2023-08-12T06:50:09;96730.56;;;21.12;100.00
64141;BME280;50436;50.618;7.932;2023-08-12T06:52:55;96731.94;;;20.79;100.00
64141;BME280;50436;50.618;7.932;2023-08-12T06:55:44;96736.44;;;20.47;100.00
64141;BME280;50436;50.618;7.932;2023-08-12T06:58:34;96725.94;;;20.41;100.00
64141;BME280;50436;50.618;7.932;2023-08-12T07:01:20;96741.69;;;20.16;100.00
64141;BME280;50436;50.618;7.932;2023-08-12T07:04:06;96722.75;;;19.84;100.00
64141;BME280;50436;50.618;7.932;2023-08-12T07:06:52;96715.13;;;19.86;100.00
64141;BME280;50436;50.618;7.932;2023-08-12T07:09:38;96715.09;;;19.58;100.00
64141;BME280;50436;50.618;7.932;2023-08-12T07:12:24;96708.50;;;19.78;100.00
64141;BME280;50436;50.618;7.932;2023-08-12T07:15:10;96700.03;;;19.66;100.00
64141;BME280;50436;50.618;7.932;2023-08-12T07:17:56;96693.00;;;19.65;100.00
64141;BME280;50436;50.618;7.932;2023-08-12T07:20:43;96687.44;;;20.11;100.00
64141;BME280;50436;50.618;7.932;2023-08-12T07:23:29;96674.53;;;20.44;100.00
64141;BME280;50436;50.618;7.932;2023-08-12T07:26:14;96682.56;;;20.49;100.00
64141;BME280;50436;50.618;7.932;2023-08-12T07:29:03;96673.19;;;20.42;100.00
64141;BME280;50436;50.618;7.932;2023-08-12T07:31:49;96681.53;;;20.09;100.00
64141;BME280;50436;50.618;7.932;2023-08-12T07:34:35;96688.66;;;19.91;100.00
64141;BME280;50436;50.618;7.932;2023-08-12T07:37:21;96690.38;;;20.01;100.00
64141;BME280;50436;50.618;7.932;2023-08-12T07:40:07;96692.69;;;19.66;100.00
64141;BME280;50436;50.618;7.932;2023-08-12T07:42:54;96698.22;;;19.61;100.00
64141;BME280;50436;50.618;7.932;2023-08-12T07:45:40;96696.16;;;19.39;100.00
64141;BME280;50436;50.618;7.932;2023-08-12T07:48:26;96701.25;;;19.27;100.00
64141;BME280;50436;50.618;7.932;2023-08-12T07:51:11;96697.03;;;19.35;100.00
64141;BME280;50436;50.618;7.932;2023-08-12T07:53:57;96679.22;;;19.15;100.00
64141;BME280;50436;50.618;7.932;2023-08-12T07:56:43;96666.97;;;19.17;100.00
64141;BME280;50436;50.618;7.932;2023-08-12T07:59:29;96679.66;;;19.36;100.00
64141;BME280;50436;50.618;7.932;2023-08-12T08:02:15;96672.44;;;19.45;100.00
64141;BME280;50436;50.618;7.932;2023-08-12T08:05:00;96666.00;;;19.41;100.00
64141;BME280;50436;50.618;7.932;2023-08-12T08:07:46;96652.59;;;19.63;100.00
64141;BME280;50436;50.618;7.932;2023-08-12T08:10:32;96655.19;;;19.82;100.00
64141;BME280;50436;50.618;7.932;2023-08-12T08:13:18;96645.94;;;19.69;100.00
64141;BME280;50436;50.618;7.932;2023-08-12T08:16:04;96655.47;;;19.67;100.00
64141;BME280;50436;50.618;7.932;2023-08-12T08:18:50;96657.81;;;19.73;100.00
64141;BME280;50436;50.618;7.932;2023-08-12T08:21:36;96645.03;;;19.88;100.00
64141;BME280;50436;50.618;7.932;2023-08-12T08:24:22;96666.16;;;19.77;100.00
64141;BME280;50436;50.618;7.932;2023-08-12T08:27:08;96664.56;;;19.62;100.00
64141;BME280;50436;50.618;7.932;2023-08-12T08:29:56;96676.06;;;19.40;100.00
64141;BME280;50436;50.618;7.932;2023-08-12T08:32:42;96680.81;;;19.76;100.00
64141;BME280;50436;50.618;7.932;2023-08-12T08:35:28;96692.88;;;19.84;100.00
64141;BME280;50436;50.618;7.932;2023-08-12T08:38:13;96700.34;;;19.78;100.00
64141;BME280;50436;50.618;7.932;2023-08-12T08:41:00;96688.25;;;19.98;100.00
64141;BME280;50436;50.618;7.932;2023-08-12T08:43:48;96688.97;;;19.76;100.00
64141;BME280;50436;50.618;7.932;2023-08-12T08:46:34;96704.25;;;19.72;100.00
64141;BME280;50436;50.618;7.932;2023-08-12T08:49:21;96694.97;;;19.45;100.00
64141;BME280;50436;50.618;7.932;2023-08-12T08:52:08;96698.41;;;19.65;100.00
64141;BME280;50436;50.618;7.932;2023-08-12T08:54:54;96671.06;;;19.89;100.00
64141;BME280;50436;50.618;7.932;2023-08-12T08:57:43;96675.88;;;19.92;100.00
64141;BME280;50436;50.618;7.932;2023-08-12T09:00:29;96665.69;;;20.25;100.00
64141;BME280;50436;50.618;7.932;2023-08-12T09:03:15;96669.31;;;20.70;100.00
64141;BME280;50436;50.618;7.932;2023-08-12T09:06:02;96666.66;;;20.79;100.00
64141;BME280;50436;50.618;7.932;2023-08-12T09:08:51;96671.00;;;21.02;100.00
64141;BME280;50436;50.618;7.932;2023-08-12T09:11:38;96659.97;;;21.30;100.00
64141;BME280;50436;50.618;7.932;2023-08-12T09:14:24;96675.00;;;21.05;100.00
64141;BME280;50436;50.618;7.932;2023-08-12T09:17:10;96671.56;;;21.44;100.00
64141;BME280;50436;50.618;7.932;2023-08-12T09:19:56;96666.75;;;21.19;100.00
64141;BME280;50436;50.618;7.932;2023-08-12T09:22:42;96671.94;;;21.51;100.00
64141;BME280;50436;50.618;7.932;2023-08-12T09:25:29;96668.06;;;21.21;100.00
64141;BME280;50436;50.618;7.932;2023-08-12T09:28:17;96669.06;;;21.03;100.00
64141;BME280;50436;50.618;7.932;2023-08-12T09:31:03;96675.72;;;20.74;100.00
64141;BME280;50436;50.618;7.932;2023-08-12T09:33:49;96664.88;;;20.97;100.00
64141;BME280;50436;50.618;7.932;2023-08-12T09:36:35;96657.03;;;21.26;100.00
64141;BME280;50436;50.618;7.932;2023-08-12T09:39:21;96659.88;;;21.44;100.00
64141;BME280;50436;50.618;7.932;2023-08-12T09:42:07;96653.03;;;21.55;100.00
64141;BME280;50436;50.618;7.932;2023-08-12T09:44:53;96654.88;;;21.77;100.00
64141;BME280;50436;50.618;7.932;2023-08-12T09:47:43;96662.56;;;21.35;100.00
64141;BME280;50436;50.618;7.932;2023-08-12T09:50:29;96666.63;;;21.24;100.00
64141;BME280;50436;50.618;7.932;2023-08-12T09:53:16;96671.56;;;21.22;100.00
64141;BME280;50436;50.618;7.932;2023-08-12T09:56:06;96682.25;;;21.09;100.00
64141;BME280;50436;50.618;7.932;2023-08-12T09:58:53;96692.31;;;20.86;100.00
64141;BME280;50436;50.618;7.932;2023-08-12T10:01:41;96694.16;;;21.00;100.00
64141;BME280;50436;50.618;7.932;2023-08-12T10:04:29;96696.66;;;21.10;100.00
64141;BME280;50436;50.618;7.932;2023-08-12T10:07:18;96677.97;;;21.17;100.00
64141;BME280;50436;50.618;7.932;2023-08-12T10:10:06;96684.50;;;21.38;100.00
64141;BME280;50436;50.618;7.932;2023-08-12T10:12:53;96677.72;;;21.27;100.00
64141;BME280;50436;50.618;7.932;2023-08-12T10:15:39;96677.88;;;21.31;100.00
64141;BME280;50436;50.618;7.932;2023-08-12T10:18:27;96674.59;;;21.42;100.00
64141;BME280;50436;50.618;7.932;2023-08-12T10:21:14;96665.78;;;21.77;100.00
64141;BME280;50436;50.618;7.932;2023-08-12T10:24:00;96671.06;;;21.73;100.00
64141;BME280;50436;50.618;7.932;2023-08-12T10:26:49;96655.31;;;21.30;100.00
64141;BME280;50436;50.618;7.932;2023-08-12T10:29:36;96665.59;;;21.33;100.00
64141;BME280;50436;50.618;7.932;2023-08-12T10:32:22;96680.06;;;20.98;100.00
64141;BME280;50436;50.618;7.932;2023-08-12T10:35:08;96676.81;;;20.51;100.00
64141;BME280;50436;50.618;7.932;2023-08-12T10:37:54;96673.34;;;20.73;100.00
64141;BME280;50436;50.618;7.932;2023-08-12T10:40:40;96656.00;;;21.13;100.00
64141;BME280;50436;50.618;7.932;2023-08-12T10:43:26;96656.03;;;21.45;100.00
64141;BME280;50436;50.618;7.932;2023-08-12T10:46:21;96662.88;;;21.64;100.00
64141;BME280;50436;50.618;7.932;2023-08-12T10:49:09;96648.78;;;22.63;100.00
64141;BME280;50436;50.618;7.932;2023-08-12T10:51:55;96648.91;;;23.27;100.00
64141;BME280;50436;50.618;7.932;2023-08-12T10:54:40;96641.25;;;23.67;100.00
64141;BME280;50436;50.618;7.932;2023-08-12T10:57:36;96636.72;;;24.51;100.00
64141;BME280;50436;50.618;7.932;2023-08-12T11:00:26;96629.78;;;24.03;100.00
64141;BME280;50436;50.618;7.932;2023-08-12T11:03:12;96629.69;;;24.21;100.00
64141;BME280;50436;50.618;7.932;2023-08-12T11:05:59;96639.94;;;24.53;100.00
64141;BME280;50436;50.618;7.932;2023-08-12T11:08:55;96629.59;;;26.07;100.00
64141;BME280;50436;50.618;7.932;2023-08-12T11:11:41;96636.31;;;26.46;100.00
64141;BME280;50436;50.618;7.932;2023-08-12T11:14:27;96619.63;;;26.27;100.00
64141;BME280;50436;50.618;7.932;2023-08-12T11:17:14;96629.66;;;24.50;100.00
64141;BME280;50436;50.618;7.932;2023-08-12T11:20:01;96632.06;;;25.06;100.00
64141;BME280;50436;50.618;7.932;2023-08-12T11:22:50;96623.94;;;25.30;100.00
64141;BME280;50436;50.618;7.932;2023-08-12T11:25:38;96630.59;;;24.75;100.00
64141;BME280;50436;50.618;7.932;2023-08-12T11:28:24;96622.34;;;24.12;100.00
64141;BME280;50436;50.618;7.932;2023-08-12T11:31:13;96611.66;;;23.22;100.00
64141;BME280;50436;50.618;7.932;2023-08-12T11:33:59;96623.13;;;22.20;100.00
64141;BME280;50436;50.618;7.932;2023-08-12T11:36:44;96618.94;;;22.23;100.00
64141;BME280;50436;50.618;7.932;2023-08-12T11:39:30;96622.97;;;22.60;100.00
64141;BME280;50436;50.618;7.932;2023-08-12T11:42:16;96626.00;;;22.76;100.00
64141;BME280;50436;50.618;7.932;2023-08-12T11:45:03;96624.13;;;22.42;100.00
64141;BME280;50436;50.618;7.932;2023-08-12T11:47:49;96604.50;;;22.83;100.00
64141;BME280;50436;50.618;7.932;2023-08-12T11:50:41;96601.59;;;23.05;100.00
64141;BME280;50436;50.618;7.932;2023-08-12T11:53:26;96598.91;;;22.97;100.00
64141;BME280;50436;50.618;7.932;2023-08-12T11:56:12;96588.50;;;23.37;100.00
64141;BME280;50436;50.618;7.932;2023-08-12T11:58:59;96610.94;;;22.96;100.00
64141;BME280;50436;50.618;7.932;2023-08-12T12:01:51;96595.16;;;23.10;100.00
64141;BME280;50436;50.618;7.932;2023-08-12T12:04:37;96582.56;;;22.88;100.00
64141;BME280;50436;50.618;7.932;2023-08-12T12:07:24;96597.28;;;22.70;100.00
64141;BME280;50436;50.618;7.932;2023-08-12T12:10:18;96602.13;;;22.90;100.00
64141;BME280;50436;50.618;7.932;2023-08-12T12:13:05;96603.09;;;22.51;100.00
64141;BME280;50436;50.618;7.932;2023-08-12T12:15:52;96615.41;;;22.14;100.00
64141;BME280;50436;50.618;7.932;2023-08-12T12:18:38;96621.19;;;22.21;100.00
64141;BME280;50436;50.618;7.932;2023-08-12T12:21:24;96612.69;;;22.83;100.00
64141;BME280;50436;50.618;7.932;2023-08-12T12:24:10;96617.81;;;23.49;100.00
64141;BME280;50436;50.618;7.932;2023-08-12T12:26:56;96625.16;;;24.66;100.00
64141;BME280;50436;50.618;7.932;2023-08-12T12:29:42;96633.28;;;24.12;100.00
64141;BME280;50436;50.618;7.932;2023-08-12T12:32:28;96643.66;;;23.98;100.00
64141;BME280;50436;50.618;7.932;2023-08-12T12:35:18;96634.72;;;23.80;100.00
64141;BME280;50436;50.618;7.932;2023-08-12T12:38:03;96640.41;;;23.20;100.00
64141;BME280;50436;50.618;7.932;2023-08-12T12:40:49;96644.00;;;22.86;100.00
64141;BME280;50436;50.618;7.932;2023-08-12T12:43:36;96643.66;;;22.18;100.00
64141;BME280;50436;50.618;7.932;2023-08-12T12:46:22;96647.59;;;21.94;100.00
64141;BME280;50436;50.618;7.932;2023-08-12T12:49:08;96639.97;;;21.65;100.00
64141;BME280;50436;50.618;7.932;2023-08-12T12:51:54;96646.66;;;21.59;100.00
64141;BME280;50436;50.618;7.932;2023-08-12T12:54:40;96642.13;;;21.55;100.00
64141;BME280;50436;50.618;7.932;2023-08-12T12:57:26;96641.59;;;21.84;100.00
64141;BME280;50436;50.618;7.932;2023-08-12T13:00:12;96639.53;;;21.89;100.00
64141;BME280;50436;50.618;7.932;2023-08-12T13:02:58;96641.09;;;22.73;100.00
64141;BME280;50436;50.618;7.932;2023-08-12T13:05:44;96626.84;;;28.57;100.00
64141;BME280;50436;50.618;7.932;2023-08-12T13:08:30;96630.59;;;32.34;91.03
64141;BME280;50436;50.618;7.932;2023-08-12T13:11:17;96622.03;;;31.58;90.09
64141;BME280;50436;50.618;7.932;2023-08-12T13:14:03;96615.25;;;31.93;90.10
64141;BME280;50436;50.618;7.932;2023-08-12T13:16:49;96623.09;;;30.45;90.15
64141;BME280;50436;50.618;7.932;2023-08-12T13:19:34;96625.38;;;32.95;82.52
64141;BME280;50436;50.618;7.932;2023-08-12T13:22:20;96633.16;;;30.34;93.58
64141;BME280;50436;50.618;7.932;2023-08-12T13:25:06;96633.19;;;28.42;100.00
64141;BME280;50436;50.618;7.932;2023-08-12T13:27:52;96635.13;;;26.87;100.00
64141;BME280;50436;50.618;7.932;2023-08-12T13:30:38;96631.66;;;26.10;100.00
64141;BME280;50436;50.618;7.932;2023-08-12T13:33:24;96633.59;;;25.15;100.00
64141;BME280;50436;50.618;7.932;2023-08-12T13:36:10;96628.69;;;25.78;100.00
64141;BME280;50436;50.618;7.932;2023-08-12T13:38:55;96618.63;;;25.70;100.00
64141;BME280;50436;50.618;7.932;2023-08-12T13:41:41;96635.44;;;25.23;100.00
64141;BME280;50436;50.618;7.932;2023-08-12T13:44:29;96634.31;;;24.70;100.00
64141;BME280;50436;50.618;7.932;2023-08-12T13:47:14;96637.28;;;24.98;100.00
64141;BME280;50436;50.618;7.932;2023-08-12T13:50:00;96636.28;;;24.82;100.00
64141;BME280;50436;50.618;7.932;2023-08-12T13:52:46;96641.75;;;24.82;100.00
64141;BME280;50436;50.618;7.932;2023-08-12T13:55:36;96635.25;;;24.33;100.00
64141;BME280;50436;50.618;7.932;2023-08-12T13:58:21;96633.97;;;24.30;100.00
64141;BME280;50436;50.618;7.932;2023-08-12T14:01:07;96636.53;;;24.56;100.00
64141;BME280;50436;50.618;7.932;2023-08-12T14:03:54;96632.16;;;24.13;100.00
64141;BME280;50436;50.618;7.932;2023-08-12T14:06:40;96643.44;;;24.03;100.00
64141;BME280;50436;50.618;7.932;2023-08-12T14:09:26;96646.03;;;24.29;100.00
64141;BME280;50436;50.618;7.932;2023-08-12T14:12:11;96641.81;;;24.61;100.00
64141;BME280;50436;50.618;7.932;2023-08-12T14:14:57;96638.03;;;24.66;100.00
64141;BME280;50436;50.618;7.932;2023-08-12T14:17:43;96637.66;;;24.55;100.00
64141;BME280;50436;50.618;7.932;2023-08-12T14:20:29;96639.34;;;24.18;100.00
64141;BME280;50436;50.618;7.932;2023-08-12T14:23:15;96639.84;;;23.90;100.00
64141;BME280;50436;50.618;7.932;2023-08-12T14:26:00;96643.72;;;23.89;100.00
64141;BME280;50436;50.618;7.932;2023-08-12T14:28:46;96635.88;;;24.09;100.00
64141;BME280;50436;50.618;7.932;2023-08-12T14:31:35;96640.94;;;24.19;100.00